Time;durP1;ratioP1;P1;durP2;ratioP2;P2;SDS_P1;SDS_P2;PMS_P1;PMS_P2;Temp;Humidity;BMP_temperature;BMP_pressure;BME280_temperature;BME280_humidity;BME280_pressure;Samples;Min_cycle;Max_cycle;Signal;HPM_P1;HPM_P2
2019/12/07 00:01:14;;;;;;;11.2;6.7;;;;;;;;;;;;;
2019/12/07 00:03:38;;;;;;;10.7;7;;;;;;;;;;;;;
2019/12/07 00:06:07;;;;;;;9.9;6.3;;;;;;;;;;;;;
2019/12/07 00:08:34;;;;;;;8.8;6.1;;;;;;;;;;;;;
2019/12/07 00:10:57;;;;;;;10.2;6.3;;;;;;;;;;;;;
2019/12/07 00:13:27;;;;;;;13;11.5;;;;;;;;;;;;;
2019/12/07 00:15:50;;;;;;;9.4;6.2;;;;;;;;;;;;;
2019/12/07 00:18:13;;;;;;;10.7;6.6;;;;;;;;;;;;;
2019/12/07 00:20:48;;;;;;;11.2;7.2;;;;;;;;;;;;;
2019/12/07 00:23:07;;;;;;;10.3;6.3;;;;;;;;;;;;;
2019/12/07 00:25:32;;;;;;;11.1;6.9;;;;;;;;;;;;;
2019/12/07 00:27:57;;;;;;;11.3;6.3;;;;;;;;;;;;;
2019/12/07 00:30:25;;;;;;;9.9;5.4;;;;;;;;;;;;;
2019/12/07 00:32:48;;;;;;;9.9;4.7;;;;;;;;;;;;;
2019/12/07 00:35:14;;;;;;;8.4;5.5;;;;;;;;;;;;;
2019/12/07 00:38:07;;;;;;;10.5;7.3;;;;;;;;;;;;;
2019/12/07 00:40:29;;;;;;;11.5;6.5;;;;;;;;;;;;;
2019/12/07 00:42:50;;;;;;;5.3;3.8;;;;;;;;;;;;;
2019/12/07 00:45:15;;;;;;;7.4;4.2;;;;;;;;;;;;;
2019/12/07 00:47:40;;;;;;;7.2;4.3;;;;;;;;;;;;;
2019/12/07 00:50:06;;;;;;;7.2;4;;;;;;;;;;;;;
2019/12/07 00:52:42;;;;;;;6.1;3.7;;;;;;;;;;;;;
2019/12/07 00:54:55;;;;;;;6.5;3.5;;;;;;;;;;;;;
2019/12/07 00:57:21;;;;;;;6.9;3.8;;;;;;;;;;;;;
2019/12/07 00:59:55;;;;;;;5.7;3.6;;;;;;;;;;;;;
2019/12/07 01:02:17;;;;;;;5.2;3.3;;;;;;;;;;;;;
2019/12/07 01:04:37;;;;;;;6.6;3.6;;;;;;;;;;;;;
2019/12/07 01:09:32;;;;;;;6.5;3.5;;;;;;;;;;;;;
2019/12/07 01:11:54;;;;;;;6.4;3.3;;;;;;;;;;;;;
2019/12/07 01:14:18;;;;;;;5.5;3.3;;;;;;;;;;;;;
2019/12/07 01:16:53;;;;;;;6.4;3.9;;;;;;;;;;;;;
2019/12/07 01:19:15;;;;;;;6.6;3.8;;;;;;;;;;;;;
2019/12/07 01:21:44;;;;;;;6.5;4.2;;;;;;;;;;;;;
2019/12/07 01:24:07;;;;;;;6.1;3.9;;;;;;;;;;;;;
2019/12/07 01:27:24;;;;;;;8.6;4.3;;;;;;;;;;;;;
2019/12/07 01:29:49;;;;;;;5.7;4;;;;;;;;;;;;;
2019/12/07 01:32:20;;;;;;;9.3;4.3;;;;;;;;;;;;;
2019/12/07 01:34:43;;;;;;;7.3;4.5;;;;;;;;;;;;;
2019/12/07 01:37:05;;;;;;;6.9;4.4;;;;;;;;;;;;;
2019/12/07 01:39:30;;;;;;;7.3;4.3;;;;;;;;;;;;;
2019/12/07 01:41:58;;;;;;;6.6;4.3;;;;;;;;;;;;;
2019/12/07 01:44:24;;;;;;;7.5;4.5;;;;;;;;;;;;;
2019/12/07 01:46:48;;;;;;;7.3;4.9;;;;;;;;;;;;;
2019/12/07 01:51:47;;;;;;;6.5;4.3;;;;;;;;;;;;;
2019/12/07 01:54:13;;;;;;;7.3;4.3;;;;;;;;;;;;;
2019/12/07 01:56:46;;;;;;;5.7;4;;;;;;;;;;;;;
2019/12/07 01:59:16;;;;;;;5.9;3.8;;;;;;;;;;;;;
2019/12/07 02:01:39;;;;;;;6.7;3.5;;;;;;;;;;;;;
2019/12/07 02:04:08;;;;;;;5.7;4;;;;;;;;;;;;;
2019/12/07 02:06:30;;;;;;;5.7;4;;;;;;;;;;;;;
2019/12/07 02:08:56;;;;;;;7.5;4.6;;;;;;;;;;;;;
2019/12/07 02:11:22;;;;;;;7.9;4.1;;;;;;;;;;;;;
2019/12/07 02:13:46;;;;;;;6.4;4.4;;;;;;;;;;;;;
2019/12/07 02:16:18;;;;;;;7.3;4.9;;;;;;;;;;;;;
2019/12/07 02:18:43;;;;;;;7.1;4.5;;;;;;;;;;;;;
2019/12/07 02:21:08;;;;;;;6.1;4.3;;;;;;;;;;;;;
2019/12/07 02:23:39;;;;;;;6.4;4;;;;;;;;;;;;;
2019/12/07 02:26:03;;;;;;;6.8;4;;;;;;;;;;;;;
2019/12/07 02:28:36;;;;;;;5.9;3.7;;;;;;;;;;;;;
2019/12/07 02:30:51;;;;;;;5.6;3.5;;;;;;;;;;;;;
2019/12/07 02:35:52;;;;;;;5.9;3.5;;;;;;;;;;;;;
2019/12/07 02:38:13;;;;;;;5.9;3.5;;;;;;;;;;;;;
2019/12/07 02:43:09;;;;;;;5.7;3.4;;;;;;;;;;;;;
2019/12/07 02:45:26;;;;;;;6;3.4;;;;;;;;;;;;;
2019/12/07 02:48:15;;;;;;;6.7;3.4;;;;;;;;;;;;;
2019/12/07 02:51:07;;;;;;;6;3.6;;;;;;;;;;;;;
2019/12/07 02:53:15;;;;;;;5.4;3.7;;;;;;;;;;;;;
2019/12/07 02:55:40;;;;;;;5.9;3.7;;;;;;;;;;;;;
2019/12/07 02:58:10;;;;;;;5.9;3.4;;;;;;;;;;;;;
2019/12/07 03:00:41;;;;;;;6.4;4.1;;;;;;;;;;;;;
2019/12/07 03:03:04;;;;;;;7.3;3.8;;;;;;;;;;;;;
2019/12/07 03:05:28;;;;;;;6;3.2;;;;;;;;;;;;;
2019/12/07 03:08:01;;;;;;;5;3.2;;;;;;;;;;;;;
2019/12/07 03:10:19;;;;;;;5.4;3.5;;;;;;;;;;;;;
2019/12/07 03:12:46;;;;;;;5.3;3.8;;;;;;;;;;;;;
2019/12/07 03:15:10;;;;;;;5.8;3.8;;;;;;;;;;;;;
2019/12/07 03:17:35;;;;;;;5.2;3.2;;;;;;;;;;;;;
2019/12/07 03:20:05;;;;;;;5.7;3.5;;;;;;;;;;;;;
2019/12/07 03:22:33;;;;;;;5;3.1;;;;;;;;;;;;;
2019/12/07 03:24:51;;;;;;;4.8;3.2;;;;;;;;;;;;;
2019/12/07 03:27:19;;;;;;;4.4;3;;;;;;;;;;;;;
2019/12/07 03:29:45;;;;;;;5.9;3.1;;;;;;;;;;;;;
2019/12/07 03:32:08;;;;;;;4.4;3.1;;;;;;;;;;;;;
2019/12/07 03:34:32;;;;;;;4.8;3;;;;;;;;;;;;;
2019/12/07 03:36:58;;;;;;;4.4;2.7;;;;;;;;;;;;;
2019/12/07 03:39:26;;;;;;;4.7;3;;;;;;;;;;;;;
2019/12/07 03:41:51;;;;;;;5;3.1;;;;;;;;;;;;;
2019/12/07 03:47:15;;;;;;;5.6;2.7;;;;;;;;;;;;;
2019/12/07 03:49:40;;;;;;;3.9;2.6;;;;;;;;;;;;;
2019/12/07 03:52:12;;;;;;;4.5;2.9;;;;;;;;;;;;;
2019/12/07 03:54:31;;;;;;;4.5;2.9;;;;;;;;;;;;;
2019/12/07 03:57:10;;;;;;;6.1;3.1;;;;;;;;;;;;;
2019/12/07 03:59:24;;;;;;;4;2.5;;;;;;;;;;;;;
2019/12/07 04:02:33;;;;;;;5.7;3.1;;;;;;;3.64;73.53711;936.6223;;;;
2019/12/07 04:05:00;;;;;;;5;3;;;;;;;3.5;73.88281;936.6433;;;;
2019/12/07 04:09:50;;;;;;;4.3;3;;;;;;;3.48;74.2168;936.5687;;;;
2019/12/07 04:12:25;;;;;;;5.7;3.5;;;;;;;3.46;74.54883;936.6892;;;;
2019/12/07 04:15:03;;;;;;;4.5;2.8;;;;;;;3.49;75.16211;936.6454;;;;
2019/12/07 04:17:35;;;;;;;6.9;2.8;;;;;;;3.52;74.53711;936.7219;;;;
2019/12/07 04:20:06;;;;;;;4.7;2.9;;;;;;;3.56;74.33203;936.628;;;;
2019/12/07 04:22:36;;;;;;;6.4;3.1;;;;;;;3.59;75.07617;936.6429;;;;
2019/12/07 04:25:04;;;;;;;4.2;2.9;;;;;;;3.58;75.00879;936.6264;;;;
2019/12/07 04:27:28;;;;;;;4.5;2.4;;;;;;;3.68;74.53223;936.6124;;;;
2019/12/07 04:31:23;;;;;;;5;3;;;;;;;3.75;74.42285;936.5511;;;;
2019/12/07 04:34:11;;;;;;;5;3.1;;;;;;;3.77;73.80664;936.5839;;;;
2019/12/07 04:36:38;;;;;;;5.4;3.1;;;;;;;3.63;73.72559;936.6203;;;;
2019/12/07 04:38:59;;;;;;;4.1;2.8;;;;;;;3.71;73.94141;936.5425;;;;
2019/12/07 04:41:27;;;;;;;3.7;2.5;;;;;;;3.63;74.04004;936.4164;;;;
2019/12/07 04:43:59;;;;;;;3.7;2.7;;;;;;;3.64;74.46777;936.4867;;;;
2019/12/07 04:46:28;;;;;;;4.1;2.5;;;;;;;3.57;74.21973;936.5037;;;;
2019/12/07 04:48:55;;;;;;;4.2;2.9;;;;;;;3.61;74.67676;936.4669;;;;
2019/12/07 04:51:24;;;;;;;4.5;2.5;;;;;;;3.49;74.89258;936.4603;;;;
2019/12/07 04:53:59;;;;;;;4.3;2.5;;;;;;;3.46;75.52734;936.3415;;;;
2019/12/07 04:56:33;;;;;;;4.7;2.5;;;;;;;3.49;75.13965;936.5022;;;;
2019/12/07 05:03:20;;;;;;;4.5;2.5;;;;;;;3.41;75.19238;936.4373;;;;
2019/12/07 05:05:46;;;;;;;7.9;4.2;;;;;;;3.32;75.87207;936.3939;;;;
2019/12/07 05:09:15;;;;;;;7;3.7;;;;;;;3.43;75.41992;936.2773;;;;
2019/12/07 05:10:45;;;;;;;7.1;3.3;;;;;;;3.32;75.66992;936.3624;;;;
2019/12/07 05:13:10;;;;;;;4.5;2.8;;;;;;;3.29;75.79883;936.3306;;;;
2019/12/07 05:15:39;;;;;;;5.4;3.4;;;;;;;3.19;76.28809;936.4316;;;;
2019/12/07 05:18:17;;;;;;;7.8;4.1;;;;;;;2.85;77.61523;936.3112;;;;
2019/12/07 05:20:45;;;;;;;5.4;3.6;;;;;;;2.96;77.61523;936.301;;;;
2019/12/07 05:23:11;;;;;;;7.2;4.1;;;;;;;2.89;77.90527;936.3999;;;;
2019/12/07 05:25:43;;;;;;;5.8;3.6;;;;;;;3.07;77.20703;936.3756;;;;
2019/12/07 05:28:26;;;;;;;6.9;3.6;;;;;;;2.95;77.39941;936.5358;;;;
2019/12/07 05:30:53;;;;;;;5.7;3.8;;;;;;;3.07;77.38672;936.4504;;;;
2019/12/07 05:33:26;;;;;;;6.2;3.7;;;;;;;3.01;77.39941;936.5421;;;;
2019/12/07 05:35:56;;;;;;;6.8;4.1;;;;;;;3.05;77.46191;936.5661;;;;
2019/12/07 05:38:20;;;;;;;10.2;5.1;;;;;;;3.13;77.11816;936.5178;;;;
2019/12/07 05:40:54;;;;;;;6.4;4.5;;;;;;;3.22;76.5957;936.5786;;;;
2019/12/07 05:43:15;;;;;;;6.9;4.4;;;;;;;3.34;75.96582;936.6149;;;;
2019/12/07 05:45:41;;;;;;;7.3;4.7;;;;;;;3.4;75.99902;936.6209;;;;
2019/12/07 05:48:12;;;;;;;7.2;4.1;;;;;;;3.26;76.42285;936.6719;;;;
2019/12/07 05:50:44;;;;;;;10.6;6.1;;;;;;;3.2;76.37891;936.6507;;;;
2019/12/07 05:53:19;;;;;;;18.9;11.8;;;;;;;3.08;76.77344;936.6367;;;;
2019/12/07 05:55:45;;;;;;;22.3;13.5;;;;;;;3.02;77.2666;936.6102;;;;
2019/12/07 05:58:55;;;;;;;40;36.1;;;;;;;2.88;77.99316;936.6788;;;;
2019/12/07 06:01:20;;;;;;;11.3;7.4;;;;;;;2.87;78.21582;936.717;;;;
2019/12/07 06:07:26;;;;;;;12;7.8;;;;;;;3.24;77.43066;936.7618;;;;
2019/12/07 06:10:11;;;;;;;9;6.1;;;;;;;3.23;76.74121;936.5945;;;;
2019/12/07 06:12:14;;;;;;;7.8;5.4;;;;;;;3.01;77.58984;936.6426;;;;
2019/12/07 06:14:37;;;;;;;7.5;5.2;;;;;;;2.89;78.56738;936.7277;;;;
2019/12/07 06:17:11;;;;;;;8.5;5.8;;;;;;;2.91;79.0752;936.6925;;;;
2019/12/07 06:19:37;;;;;;;10.1;6.4;;;;;;;2.83;79.3291;936.7305;;;;
2019/12/07 06:22:05;;;;;;;16.4;10.9;;;;;;;2.99;78.77637;936.7597;;;;
2019/12/07 06:24:32;;;;;;;14.6;10;;;;;;;3.04;78.47168;936.7327;;;;
2019/12/07 06:27:16;;;;;;;15.3;10.7;;;;;;;3.08;78.17578;936.7278;;;;
2019/12/07 06:29:42;;;;;;;14.3;10;;;;;;;3.17;77.65234;936.7928;;;;
2019/12/07 06:32:13;;;;;;;14.9;10.2;;;;;;;2.95;78.41992;936.8119;;;;
2019/12/07 06:34:48;;;;;;;22.7;14.6;;;;;;;2.85;78.9043;936.9166;;;;
2019/12/07 06:37:15;;;;;;;19.6;11.8;;;;;;;2.98;79.03125;936.8653;;;;
2019/12/07 06:39:54;;;;;;;13.2;8.6;;;;;;;2.94;79.38281;936.8555;;;;
2019/12/07 06:42:31;;;;;;;15.1;9.1;;;;;;;2.89;79.7002;936.9592;;;;
2019/12/07 06:45:00;;;;;;;18.1;11.1;;;;;;;2.88;80.67383;936.8455;;;;
2019/12/07 06:47:21;;;;;;;15.8;10.6;;;;;;;2.81;80.61523;936.9256;;;;
2019/12/07 06:49:48;;;;;;;14.5;10.3;;;;;;;2.74;80.84863;936.9535;;;;
2019/12/07 06:52:18;;;;;;;13.5;9.4;;;;;;;2.96;80.22754;936.9977;;;;
2019/12/07 06:57:17;;;;;;;14.4;10;;;;;;;3.11;79.60547;937.0119;;;;
2019/12/07 06:59:38;;;;;;;13.7;9.4;;;;;;;3.21;79.06348;937.0416;;;;
2019/12/07 07:02:24;;;;;;;12.4;7.7;;;;;;;3.25;79.10352;937.1649;;;;
2019/12/07 07:04:45;;;;;;;12.4;8.4;;;;;;;2.99;80.85156;937.182;;;;
2019/12/07 07:07:19;;;;;;;13.2;9.1;;;;;;;3.16;79.64941;937.1011;;;;
2019/12/07 07:09:55;;;;;;;16.8;10.8;;;;;;;3.08;79.90332;937.1494;;;;
2019/12/07 07:12:22;;;;;;;12.7;8.3;;;;;;;3.15;79.1748;937.2958;;;;
2019/12/07 07:14:55;;;;;;;12.7;8.3;;;;;;;3.2;79.63379;937.3286;;;;
2019/12/07 07:17:24;;;;;;;13.2;8.5;;;;;;;3.37;79.01465;937.351;;;;
2019/12/07 07:19:44;;;;;;;6.2;4.7;;;;;;;3.45;79.09766;937.3091;;;;
2019/12/07 07:22:13;;;;;;;5;3.2;;;;;;;3.58;78.44727;937.2048;;;;
2019/12/07 07:24:44;;;;;;;4.7;3.1;;;;;;;3.5;79.10547;937.4509;;;;
2019/12/07 07:27:25;;;;;;;7.5;3.9;;;;;;;3.53;79.32422;937.3777;;;;
2019/12/07 07:29:51;;;;;;;5.3;3.3;;;;;;;3.69;79.18555;937.5506;;;;
2019/12/07 07:34:55;;;;;;;5.8;3.4;;;;;;;4.02;78.20215;937.41;;;;
2019/12/07 07:37:19;;;;;;;6.3;3.2;;;;;;;4.09;77.73145;937.4856;;;;
2019/12/07 07:39:56;;;;;;;8.1;4.1;;;;;;;4.25;77.66992;937.5034;;;;
2019/12/07 07:42:30;;;;;;;5.5;3.8;;;;;;;4.23;76.05762;937.5786;;;;
2019/12/07 07:45:11;;;;;;;11.3;6.2;;;;;;;4.27;76.2793;937.5886;;;;
2019/12/07 07:48:13;;;;;;;11.7;7.3;;;;;;;4.36;75.75586;937.6118;;;;
2019/12/07 07:50:28;;;;;;;10;6.8;;;;;;;4.35;76.30371;937.6777;;;;
2019/12/07 07:52:55;;;;;;;6.6;4.1;;;;;;;4.53;74.96289;937.6686;;;;
2019/12/07 07:55:24;;;;;;;9.5;5.7;;;;;;;4.79;74.53516;937.65;;;;
2019/12/07 07:57:54;;;;;;;7.6;5.4;;;;;;;4.95;74.25977;937.6289;;;;
2019/12/07 08:00:18;;;;;;;8.2;4.8;;;;;;;5.07;73.6377;937.7622;;;;
2019/12/07 08:03:11;;;;;;;6;4;;;;;;;5.22;72.71484;937.7532;;;;
2019/12/07 08:05:48;;;;;;;3.4;2.6;;;;;;;5.09;71.80273;937.7019;;;;
2019/12/07 08:08:11;;;;;;;4.2;2.9;;;;;;;5.2;72.40918;937.8093;;;;
2019/12/07 08:10:36;;;;;;;4.4;3.3;;;;;;;5.32;72.13379;937.7119;;;;
2019/12/07 08:13:07;;;;;;;5.2;4.2;;;;;;;5.32;73.20508;937.7687;;;;
2019/12/07 08:15:40;;;;;;;8;5.4;;;;;;;5.14;73.15234;937.7474;;;;
2019/12/07 08:18:03;;;;;;;9.2;6.1;;;;;;;5.13;74.30176;937.8057;;;;
2019/12/07 08:20:38;;;;;;;9;6.1;;;;;;;5.28;73.33496;937.6672;;;;
2019/12/07 08:23:09;;;;;;;9.5;7.2;;;;;;;5.33;72.96094;937.8653;;;;
2019/12/07 08:25:33;;;;;;;8.8;6.1;;;;;;;5.46;71.86523;937.8391;;;;
2019/12/07 08:28:20;;;;;;;11.1;7;;;;;;;5.63;72.0293;937.8907;;;;
2019/12/07 08:30:50;;;;;;;12.6;8.1;;;;;;;5.74;71.34863;937.9498;;;;
2019/12/07 08:33:14;;;;;;;12.8;9.4;;;;;;;5.69;71.66699;937.9255;;;;
2019/12/07 08:35:41;;;;;;;10.7;8.1;;;;;;;5.87;70.78125;937.9653;;;;
2019/12/07 08:38:11;;;;;;;12.8;9.1;;;;;;;5.8;71.36816;937.9791;;;;
2019/12/07 08:43:46;;;;;;;12;8.1;;;;;;;5.79;71.67285;938.0531;;;;
2019/12/07 08:46:07;;;;;;;12.4;7.7;;;;;;;5.92;71.38867;938.0112;;;;
2019/12/07 08:48:24;;;;;;;11.6;8.2;;;;;;;6.02;71.43945;938.0284;;;;
2019/12/07 08:50:52;;;;;;;11.6;7.7;;;;;;;6.12;71.07324;938.0444;;;;
2019/12/07 08:53:17;;;;;;;12;8;;;;;;;6.25;70.89063;937.8678;;;;
2019/12/07 08:55:43;;;;;;;11.1;7.6;;;;;;;6.53;70.19043;937.9626;;;;
2019/12/07 08:58:12;;;;;;;13.6;9.2;;;;;;;6.56;69.69727;937.9072;;;;
2019/12/07 09:00:47;;;;;;;18.1;13;;;;;;;6.5;70.04883;937.9601;;;;
2019/12/07 09:03:18;;;;;;;17.7;12.6;;;;;;;6.53;69.36426;938.0125;;;;
2019/12/07 09:05:52;;;;;;;17.2;12.3;;;;;;;6.42;70.37598;937.9979;;;;
2019/12/07 09:08:26;;;;;;;17.4;12.8;;;;;;;6.76;69.50293;937.9864;;;;
2019/12/07 09:11:04;;;;;;;18.4;13.3;;;;;;;6.87;70.0752;937.9149;;;;
2019/12/07 09:13:27;;;;;;;19.7;14;;;;;;;6.94;69.96289;937.9789;;;;
2019/12/07 09:15:53;;;;;;;19.7;13.2;;;;;;;7.14;68.66992;938.0009;;;;
2019/12/07 09:18:18;;;;;;;21.6;12.7;;;;;;;7.14;69.25879;938.043;;;;
2019/12/07 09:20:52;;;;;;;21.5;13.3;;;;;;;7.31;68.85742;938.1856;;;;
2019/12/07 09:23:22;;;;;;;20;12.8;;;;;;;7.58;67.71973;938.0893;;;;
2019/12/07 09:25:52;;;;;;;14.7;10.8;;;;;;;7.59;67.39355;938.1174;;;;
2019/12/07 09:28:21;;;;;;;16.7;10.9;;;;;;;7.7;67.30859;938.1863;;;;
2019/12/07 09:30:50;;;;;;;20.1;13.4;;;;;;;7.7;66.79688;938.2258;;;;
2019/12/07 09:33:23;;;;;;;11.1;7.6;;;;;;;7.4;66.5127;938.1922;;;;
2019/12/07 09:35:48;;;;;;;11.8;8.1;;;;;;;7.57;66.87988;938.1817;;;;
2019/12/07 09:38:15;;;;;;;12.8;8.2;;;;;;;7.71;66.97949;938.1802;;;;
2019/12/07 09:40:42;;;;;;;15;9.4;;;;;;;7.46;67.69043;938.2335;;;;
2019/12/07 09:43:09;;;;;;;10.6;6.8;;;;;;;7.57;66.43555;938.1635;;;;
2019/12/07 09:45:42;;;;;;;14.1;7.8;;;;;;;7.64;67.15137;938.1898;;;;
2019/12/07 09:48:07;;;;;;;11.1;7.2;;;;;;;7.55;67.11328;938.2899;;;;
2019/12/07 09:50:38;;;;;;;11.1;7.2;;;;;;;7.36;69.05762;938.1716;;;;
2019/12/07 09:53:26;;;;;;;12.5;8.5;;;;;;;6.93;70.8457;938.3033;;;;
2019/12/07 09:55:47;;;;;;;12.1;7.1;;;;;;;7.19;69.77734;938.1803;;;;
2019/12/07 09:58:20;;;;;;;11.4;6.9;;;;;;;7.31;69.43359;938.1024;;;;
2019/12/07 10:00:52;;;;;;;13.8;9.1;;;;;;;7.39;69.20996;938.2325;;;;
2019/12/07 10:03:25;;;;;;;10.1;6.9;;;;;;;7.56;68.52051;938.1657;;;;
2019/12/07 10:05:53;;;;;;;10.2;5.8;;;;;;;7.62;68.55469;938.111;;;;
2019/12/07 10:08:29;;;;;;;10.4;6.5;;;;;;;7.91;67.46582;938.2224;;;;
2019/12/07 10:10:48;;;;;;;12.9;7.7;;;;;;;7.77;67.47949;938.1758;;;;
2019/12/07 10:13:21;;;;;;;12.2;8.6;;;;;;;7.98;68.15723;938.0555;;;;
2019/12/07 10:15:54;;;;;;;13.9;10.2;;;;;;;8.25;66.56445;938.1459;;;;
2019/12/07 10:18:24;;;;;;;15.4;11.2;;;;;;;8.45;64.44824;938.0485;;;;
2019/12/07 10:20:49;;;;;;;16.8;12;;;;;;;8.57;65.5;938.0638;;;;
2019/12/07 10:23:15;;;;;;;14;9.1;;;;;;;8.87;63.8291;938.1542;;;;
2019/12/07 10:25:52;;;;;;;13.2;8.9;;;;;;;9.19;63.52344;938.1537;;;;
2019/12/07 10:28:30;;;;;;;11.7;8.9;;;;;;;9.37;63.41309;938.0428;;;;
2019/12/07 10:30:48;;;;;;;16.1;10;;;;;;;9.32;63.86133;937.985;;;;
2019/12/07 10:33:13;;;;;;;11.2;7.3;;;;;;;9.56;62.19922;938.0797;;;;
2019/12/07 10:35:50;;;;;;;10.5;6.5;;;;;;;9.77;59.6416;938.1033;;;;
2019/12/07 10:38:13;;;;;;;10;6.2;;;;;;;9.96;59.96484;938.0636;;;;
2019/12/07 10:40:45;;;;;;;12.8;5.6;;;;;;;10.17;59.19531;938.0909;;;;
2019/12/07 10:43:25;;;;;;;7.4;3.3;;;;;;;9.97;57.18359;938.0097;;;;
2019/12/07 10:45:48;;;;;;;8.8;5.8;;;;;;;9.7;59.59766;937.9617;;;;
2019/12/07 10:48:16;;;;;;;6.9;4.3;;;;;;;9.88;59.05273;938.0413;;;;
2019/12/07 10:50:42;;;;;;;9;3.7;;;;;;;9.98;58.30273;938.0854;;;;
2019/12/07 10:53:11;;;;;;;20.8;4;;;;;;;10.19;58.19434;938.1309;;;;
2019/12/07 10:55:38;;;;;;;6.2;3;;;;;;;10.42;57.64258;938.0871;;;;
2019/12/07 10:58:02;;;;;;;4.8;2.6;;;;;;;10.5;57.03809;938.1906;;;;
2019/12/07 11:00:37;;;;;;;12.9;4.4;;;;;;;10.38;56.74805;938.1716;;;;
2019/12/07 11:03:04;;;;;;;8.5;4;;;;;;;10.35;57.15527;938.1284;;;;
2019/12/07 11:05:29;;;;;;;18.1;4.8;;;;;;;10.38;57.08984;938.1875;;;;
2019/12/07 11:07:59;;;;;;;5.8;3.8;;;;;;;10.42;56.90137;938.0974;;;;
2019/12/07 11:10:28;;;;;;;6.9;4;;;;;;;10.43;56.7666;938.135;;;;
2019/12/07 11:13:01;;;;;;;7;3.2;;;;;;;10.44;56.50391;938.0825;;;;
2019/12/07 11:15:27;;;;;;;6.8;2.8;;;;;;;10.53;55.48926;938.1223;;;;
2019/12/07 11:17:54;;;;;;;7.3;2.7;;;;;;;10.58;55.1875;938.0337;;;;
2019/12/07 11:20:26;;;;;;;8;2.8;;;;;;;10.8;55.72949;937.9816;;;;
2019/12/07 11:22:51;;;;;;;14.7;3;;;;;;;10.7;54.8252;938.0779;;;;
2019/12/07 11:25:19;;;;;;;9.8;2.7;;;;;;;10.94;53.78125;937.9336;;;;
2019/12/07 11:27:45;;;;;;;7.7;2.5;;;;;;;11.12;54.375;937.9001;;;;
2019/12/07 11:30:19;;;;;;;5.4;2.1;;;;;;;11.25;53.85449;937.8901;;;;
2019/12/07 11:32:45;;;;;;;4.9;2;;;;;;;11.48;53.40137;937.8741;;;;
2019/12/07 11:35:24;;;;;;;4.9;2.2;;;;;;;11.7;51.94238;937.838;;;;
2019/12/07 11:37:52;;;;;;;6.7;2.2;;;;;;;11.86;52.17773;937.8439;;;;
2019/12/07 11:40:19;;;;;;;32.6;4.3;;;;;;;11.86;53.49512;937.9741;;;;
2019/12/07 11:42:48;;;;;;;18.4;3;;;;;;;11.82;54.17676;937.9562;;;;
2019/12/07 11:45:10;;;;;;;8.9;3.1;;;;;;;11.64;54.3252;937.8911;;;;
2019/12/07 11:47:36;;;;;;;6.4;2.6;;;;;;;11.7;53.7959;937.774;;;;
2019/12/07 11:50:02;;;;;;;14.7;3.8;;;;;;;11.57;54.45605;937.8283;;;;
2019/12/07 11:55:12;;;;;;;12.5;3.3;;;;;;;11.56;54.77344;937.7109;;;;
2019/12/07 11:57:37;;;;;;;16.6;3.8;;;;;;;11.61;54.62012;937.7854;;;;
2019/12/07 12:00:09;;;;;;;10.5;2.9;;;;;;;11.48;55.2334;937.7656;;;;
2019/12/07 12:02:30;;;;;;;6.7;2.8;;;;;;;11.65;54.4873;937.7587;;;;
2019/12/07 12:04:55;;;;;;;32.7;3.9;;;;;;;11.52;54.96289;937.7148;;;;
2019/12/07 12:07:18;;;;;;;14.4;3;;;;;;;11.63;55.45801;937.7388;;;;
2019/12/07 12:09:44;;;;;;;10.3;3.6;;;;;;;11.54;55.22852;937.679;;;;
2019/12/07 12:12:17;;;;;;;9.3;3.1;;;;;;;11.53;54.73535;937.7683;;;;
2019/12/07 12:14:44;;;;;;;10.7;3.6;;;;;;;11.29;56.33008;937.7141;;;;
2019/12/07 12:17:11;;;;;;;5.1;2.5;;;;;;;11.03;57.32422;937.6883;;;;
2019/12/07 12:19:36;;;;;;;6;2.6;;;;;;;10.8;58.18555;937.7937;;;;
2019/12/07 12:22:13;;;;;;;7.8;2.6;;;;;;;10.77;57.98535;937.7711;;;;
2019/12/07 12:24:39;;;;;;;5.7;2.2;;;;;;;10.73;58.90723;937.7676;;;;
2019/12/07 12:27:02;;;;;;;5.6;2.1;;;;;;;11.1;58.45313;937.688;;;;
2019/12/07 12:29:37;;;;;;;10.2;3.2;;;;;;;11.33;57.54688;937.7637;;;;
2019/12/07 12:31:59;;;;;;;5.6;2.8;;;;;;;11.34;56.85156;937.7224;;;;
2019/12/07 12:34:26;;;;;;;4;1.9;;;;;;;11.37;56.64941;937.6397;;;;
2019/12/07 12:36:51;;;;;;;5;2.8;;;;;;;11.43;56.97656;937.5581;;;;
2019/12/07 12:39:18;;;;;;;7.3;3.6;;;;;;;11.58;56.07031;937.4774;;;;
2019/12/07 12:41:44;;;;;;;6.2;3.4;;;;;;;11.77;56.43652;937.5989;;;;
2019/12/07 12:46:32;;;;;;;17.2;4.2;;;;;;;11.69;55.89941;937.5323;;;;
2019/12/07 12:51:22;;;;;;;9.7;3.1;;;;;;;11.61;55.74121;937.5733;;;;
2019/12/07 12:53:51;;;;;;;8;3.1;;;;;;;11.87;55.40918;937.5511;;;;
2019/12/07 12:56:20;;;;;;;41.3;8.7;;;;;;;12.15;55.78809;937.6017;;;;
2019/12/07 12:58:49;;;;;;;7.9;2.5;;;;;;;12.15;55.12402;937.5681;;;;
2019/12/07 13:01:14;;;;;;;4;2;;;;;;;11.81;56.5;937.5475;;;;
2019/12/07 13:03:42;;;;;;;4.1;1.8;;;;;;;11.63;57.79297;937.4603;;;;
2019/12/07 13:06:09;;;;;;;3.5;1.6;;;;;;;11.59;57.02148;937.5867;;;;
2019/12/07 13:08:47;;;;;;;8.7;2.2;;;;;;;11.36;59.2207;937.6906;;;;
2019/12/07 13:11:14;;;;;;;4;2;;;;;;;11.05;61.04199;937.718;;;;
2019/12/07 13:13:46;;;;;;;6.5;2.1;;;;;;;10.64;63.15332;937.7199;;;;
2019/12/07 13:16:19;;;;;;;5.8;2;;;;;;;10.64;63.66895;937.7749;;;;
2019/12/07 13:18:50;;;;;;;5;1.8;;;;;;;10.18;65.11816;937.8038;;;;
2019/12/07 13:21:16;;;;;;;4.6;1.9;;;;;;;10;65.84375;937.7531;;;;
2019/12/07 13:23:52;;;;;;;3.4;1.9;;;;;;;9.62;67.44922;937.7756;;;;
2019/12/07 13:26:21;;;;;;;6;2.4;;;;;;;9.77;67.07324;937.7892;;;;
2019/12/07 13:28:45;;;;;;;6.5;2.2;;;;;;;9.97;66.55762;937.8212;;;;
2019/12/07 13:31:16;;;;;;;5.4;1.8;;;;;;;9.98;66.52344;937.8333;;;;
2019/12/07 13:34:18;;;;;;;6;2.3;;;;;;;10.08;66.18652;937.7733;;;;
2019/12/07 13:36:37;;;;;;;4.1;2.2;;;;;;;10.05;65.88477;937.7977;;;;
2019/12/07 13:39:04;;;;;;;7.9;3.1;;;;;;;10.17;65.66309;937.7583;;;;
2019/12/07 13:41:29;;;;;;;5;2.7;;;;;;;9.72;67.06641;937.834;;;;
2019/12/07 13:43:56;;;;;;;6;2.9;;;;;;;9.5;67.55469;937.7673;;;;
2019/12/07 13:46:30;;;;;;;7.8;3;;;;;;;9.55;67.73438;937.8452;;;;
2019/12/07 13:48:51;;;;;;;6.3;2.3;;;;;;;9.74;67.0918;937.9272;;;;
2019/12/07 13:51:18;;;;;;;3.6;2;;;;;;;9.78;66.88086;937.9055;;;;
2019/12/07 13:53:43;;;;;;;5;2.4;;;;;;;9.66;67.37695;937.9311;;;;
2019/12/07 13:56:13;;;;;;;5.5;2.3;;;;;;;9.89;66.52246;937.8951;;;;
2019/12/07 13:58:38;;;;;;;5;3.2;;;;;;;9.79;66.66699;937.8658;;;;
2019/12/07 14:01:06;;;;;;;4.1;2.1;;;;;;;9.91;66.35547;937.9312;;;;
2019/12/07 14:03:33;;;;;;;3.4;2.2;;;;;;;9.71;66.79199;937.9214;;;;
2019/12/07 14:06:12;;;;;;;7.2;2.5;;;;;;;9.62;67.48242;937.9791;;;;
2019/12/07 14:08:37;;;;;;;11.9;4.8;;;;;;;9.55;67.82422;937.9524;;;;
2019/12/07 14:11:01;;;;;;;5.1;3.1;;;;;;;9.52;67.93359;937.9187;;;;
2019/12/07 14:13:30;;;;;;;4.2;2.1;;;;;;;9.45;68.03711;937.8217;;;;
2019/12/07 14:15:54;;;;;;;3.4;2;;;;;;;9.38;67.78711;937.8983;;;;
2019/12/07 14:18:20;;;;;;;3.8;2;;;;;;;9.43;67.94336;937.9804;;;;
2019/12/07 14:20:50;;;;;;;5.7;2.2;;;;;;;9.55;67.31445;937.9199;;;;
2019/12/07 14:23:14;;;;;;;6.7;2.2;;;;;;;9.49;67.48535;937.9272;;;;
2019/12/07 14:25:46;;;;;;;4.7;2;;;;;;;9.52;67;937.8766;;;;
2019/12/07 14:28:19;;;;;;;3.4;1.9;;;;;;;9.53;66.75293;937.9165;;;;
2019/12/07 14:30:44;;;;;;;2.8;1.6;;;;;;;9.7;66.20703;938.0294;;;;
2019/12/07 14:33:14;;;;;;;4.3;1.9;;;;;;;9.63;66.4248;938.0452;;;;
2019/12/07 14:35:46;;;;;;;5.1;2.5;;;;;;;9.43;67.2373;938.1473;;;;
2019/12/07 14:38:12;;;;;;;4.4;2.8;;;;;;;9.47;67.6416;938.2439;;;;
2019/12/07 14:40:37;;;;;;;4.5;2.5;;;;;;;9.39;68.27832;938.2084;;;;
2019/12/07 14:43:08;;;;;;;5.3;2.7;;;;;;;9.25;68.3252;938.1771;;;;
2019/12/07 14:45:38;;;;;;;5.7;3.8;;;;;;;9.06;68.94238;938.2383;;;;
2019/12/07 14:48:08;;;;;;;9.6;5;;;;;;;9;69.45801;938.3047;;;;
2019/12/07 14:50:36;;;;;;;9.1;5.3;;;;;;;9.22;68.79688;938.2489;;;;
2019/12/07 14:53:05;;;;;;;7.1;4.2;;;;;;;9.24;68.59668;938.1683;;;;
2019/12/07 14:55:28;;;;;;;7.8;3.7;;;;;;;9.14;68.69434;938.2126;;;;
2019/12/07 14:58:04;;;;;;;6.9;4.3;;;;;;;9.06;68.68066;938.2439;;;;
2019/12/07 15:00:38;;;;;;;7.4;4.2;;;;;;;9.05;68.72559;938.2732;;;;
2019/12/07 15:03:19;;;;;;;7.8;4.5;;;;;;;9.2;68.21387;938.3111;;;;
2019/12/07 15:05:40;;;;;;;9.3;5.6;;;;;;;9.23;68.09473;938.323;;;;
2019/12/07 15:07:56;;;;;;;12.6;6.6;;;;;;;9.23;67.85547;938.3557;;;;
2019/12/07 15:10:25;;;;;;;18.6;13.8;;;;;;;9.04;68.57617;938.4494;;;;
2019/12/07 15:12:52;;;;;;;5.4;3;;;;;;;8.7;68.64648;938.4838;;;;
2019/12/07 15:15:21;;;;;;;36.5;21.3;;;;;;;8.79;68.98926;938.4988;;;;
2019/12/07 15:17:46;;;;;;;10.9;6.9;;;;;;;8.81;68.87988;938.4963;;;;
2019/12/07 15:20:13;;;;;;;14.4;6.9;;;;;;;8.93;68.61426;938.5195;;;;
2019/12/07 15:22:40;;;;;;;9;6.1;;;;;;;9.04;67.99609;938.4517;;;;
2019/12/07 15:25:05;;;;;;;13.4;7.1;;;;;;;9.09;68.26465;938.5153;;;;
2019/12/07 15:27:30;;;;;;;9.4;5.9;;;;;;;9.07;67.96582;938.4585;;;;
2019/12/07 15:30:00;;;;;;;10.7;5.5;;;;;;;9;68.0459;938.508;;;;
2019/12/07 15:32:34;;;;;;;10.4;5.6;;;;;;;9;67.95605;938.5636;;;;
2019/12/07 15:35:05;;;;;;;7.7;5;;;;;;;8.8;68.23047;938.6259;;;;
2019/12/07 15:38:29;;;;;;;12.3;7.4;;;;;;;8.66;69.07129;938.6348;;;;
2019/12/07 15:40:54;;;;;;;8.5;5.6;;;;;;;8.59;69.90137;938.6895;;;;
2019/12/07 15:43:29;;;;;;;9.7;6.5;;;;;;;8.33;70.71094;938.7192;;;;
2019/12/07 15:45:56;;;;;;;15.1;8.9;;;;;;;8.32;70.64258;938.8152;;;;
2019/12/07 15:49:12;;;;;;;12.7;7.9;;;;;;;8.31;70.73145;938.8047;;;;
2019/12/07 15:51:00;;;;;;;11.8;6.8;;;;;;;8.32;70.8125;938.8508;;;;
2019/12/07 15:53:18;;;;;;;13.6;8.4;;;;;;;8.27;71.01953;938.907;;;;
2019/12/07 15:55:49;;;;;;;14.8;8.5;;;;;;;8.22;71.02246;938.9893;;;;
2019/12/07 15:58:14;;;;;;;10.9;7.7;;;;;;;8.08;71.47852;939.0887;;;;
2019/12/07 16:00:44;;;;;;;11.2;6.8;;;;;;;7.99;71.93848;939.1476;;;;
2019/12/07 16:03:08;;;;;;;13.6;9;;;;;;;8.06;71.59863;939.1636;;;;
2019/12/07 16:05:40;;;;;;;12.4;8.7;;;;;;;8.07;71.59961;939.2424;;;;
2019/12/07 16:08:05;;;;;;;13.1;7.7;;;;;;;8.04;71.66211;939.2527;;;;
2019/12/07 16:10:34;;;;;;;15.4;10;;;;;;;7.98;72.62891;939.2299;;;;
2019/12/07 16:13:10;;;;;;;59.9;44.2;;;;;;;7.39;74.72852;939.2811;;;;
2019/12/07 16:15:44;;;;;;;77.5;54.3;;;;;;;7.58;74.54688;939.3627;;;;
2019/12/07 16:18:26;;;;;;;33.8;24.1;;;;;;;7.73;73.6543;939.2988;;;;
2019/12/07 16:20:51;;;;;;;28.9;18.9;;;;;;;7.65;73.68555;939.4405;;;;
2019/12/07 16:23:19;;;;;;;27;18.6;;;;;;;7.53;74.26465;939.4328;;;;
2019/12/07 16:25:46;;;;;;;29.6;19.9;;;;;;;7.51;74.68164;939.4847;;;;
2019/12/07 16:28:28;;;;;;;23.3;16.5;;;;;;;7.44;74.10352;939.5481;;;;
2019/12/07 16:31:00;;;;;;;23.8;17;;;;;;;7.31;75.05469;939.5969;;;;